Search for airport 
image banner adimage banner adimage banner ad
image banner ad

79CL - Milhous Ranch

Located in North San Juan, United States

ICAO - 79CL, IATA -

Data provided by Airmate  

General information

Coordinates: N39°19'30" W121°4'34"
Elevation is 2625 feet MSL.
Magnetic variation is 16° East
View others Airports in California

Operational data

Special qualification required
Current time UTC:
Current local time:
Weather at : KGOO - Nevada County Air Park ( 13 km )
METAR: KGOO 211330Z AUTO 00000KT 10SM CLR 24/01 A2996 RMK A01
View NOTAMs / SUP AIP / TFR affecting this airport [VIEW]
Communications frequencies: [VIEW]

Runways:

RWY identifierQFULength (ft)Width (ft)SurfaceLDA (ft)
03210075EARTH
21210075EARTH

Airport contact information

Address: North San Juan United States

Satellite view of 79CL